Monument Lake Park, Colorado
Current Conditions -  °F | °C
As of 5:51 PM on Saturday 25 Oct 2014 (Local Time) from KVTP Reporting Station
Clear Clear  
Wind Chill: 55°   Ceiling: Unl
Heat Index: 55°   Visibility: 10mi
Dew Point: 19°   Wind: 8mph
Humidity: 25%   Direction: 200°SSW
Pressure: 30.42"   Gusts: 17mph
Location:  37.1566°N, 104.956°W
Report Text: KVTP 252351Z AUTO 20007G15KT 10SM CLR 13/M07 A3042 RMK AO2
Loading
Personal Weather Stations






























Interactive Weather Map New forecast layout! Learn more

10-Day Weather Forecast

Advertisements
Track Severe Weather on mobile